createdAt,value
2019-05-22T00:01:25.380Z,12.46
2019-05-22T00:04:01.127Z,12.46
2019-05-22T00:06:36.881Z,12.42
2019-05-22T00:09:10.656Z,12.40
2019-05-22T00:11:40.227Z,12.39
2019-05-22T00:14:10.396Z,12.44
2019-05-22T00:16:40.208Z,12.42
2019-05-22T00:19:10.005Z,12.41
2019-05-22T00:21:40.218Z,12.42
2019-05-22T00:24:11.123Z,12.44
2019-05-22T00:26:43.910Z,12.47
2019-05-22T00:29:13.991Z,12.52
2019-05-22T00:31:43.469Z,12.50
2019-05-22T00:34:14.129Z,12.47
2019-05-22T00:36:43.598Z,12.42
2019-05-22T00:39:14.487Z,12.41
2019-05-22T00:41:46.532Z,12.42
2019-05-22T00:44:17.374Z,12.44
2019-05-22T00:46:47.943Z,12.44
2019-05-22T00:49:18.119Z,12.45
2019-05-22T00:52:07.157Z,12.47
2019-05-22T00:54:54.883Z,12.50
2019-05-22T00:57:44.580Z,12.56
2019-05-22T01:00:35.018Z,12.55
2019-05-22T01:03:06.736Z,12.57
2019-05-22T01:05:38.268Z,12.53
2019-05-22T01:08:07.564Z,12.54
2019-05-22T01:10:39.042Z,12.54
2019-05-22T01:13:09.811Z,12.50
2019-05-22T01:15:40.852Z,12.50
2019-05-22T01:18:14.228Z,12.49
2019-05-22T01:20:43.559Z,12.45
2019-05-22T01:23:18.047Z,12.42
2019-05-22T01:25:47.901Z,12.40
2019-05-22T01:28:17.313Z,12.38
2019-05-22T01:31:05.709Z,12.39
2019-05-22T01:33:42.597Z,12.39
2019-05-22T01:36:19.552Z,12.37
2019-05-22T01:38:49.214Z,12.35
2019-05-22T01:41:26.039Z,12.36
2019-05-22T01:43:57.084Z,12.43
2019-05-22T01:46:28.671Z,12.45
2019-05-22T01:49:03.238Z,12.44
2019-05-22T01:51:34.272Z,12.35
2019-05-22T01:54:05.791Z,12.33
2019-05-22T01:56:36.323Z,12.30
2019-05-22T01:59:07.526Z,12.27
2019-05-22T02:01:37.483Z,12.25
2019-05-22T02:04:08.080Z,12.24
2019-05-22T02:06:39.082Z,12.28
2019-05-22T02:09:31.513Z,12.30
2019-05-22T02:12:10.425Z,12.27
2019-05-22T02:14:44.212Z,12.22
2019-05-22T02:17:13.671Z,12.25
2019-05-22T02:19:43.022Z,12.27
2019-05-22T02:22:15.214Z,12.29
2019-05-22T02:24:44.523Z,12.25
2019-05-22T02:27:14.161Z,12.23
2019-05-22T02:29:44.668Z,12.23
2019-05-22T02:32:14.594Z,12.21
2019-05-22T02:34:46.201Z,12.17
2019-05-22T02:37:17.930Z,12.17
2019-05-22T02:39:47.650Z,12.20
2019-05-22T02:42:23.139Z,12.20
2019-05-22T02:44:52.711Z,12.24
2019-05-22T02:47:25.011Z,12.18
2019-05-22T02:49:57.262Z,12.20
2019-05-22T02:52:27.265Z,12.20
2019-05-22T02:54:56.445Z,12.17
2019-05-22T02:57:28.240Z,12.13
2019-05-22T02:59:59.022Z,12.15
2019-05-22T03:02:28.567Z,12.11
2019-05-22T03:05:07.143Z,12.15
2019-05-22T03:07:36.860Z,12.12
2019-05-22T03:10:07.984Z,12.13
2019-05-22T03:12:39.010Z,12.15
2019-05-22T03:15:16.140Z,12.17
2019-05-22T03:17:47.509Z,12.16
2019-05-22T03:20:19.527Z,12.15
2019-05-22T03:25:11.707Z,12.17
2019-05-22T03:27:44.752Z,12.13
2019-05-22T03:30:23.750Z,12.13
2019-05-22T03:32:53.661Z,12.14
2019-05-22T03:35:26.395Z,12.16
2019-05-22T03:37:58.999Z,12.14
2019-05-22T03:40:30.888Z,12.17
2019-05-22T03:43:09.201Z,12.22
2019-05-22T03:45:39.910Z,12.23
2019-05-22T03:48:10.129Z,12.24
2019-05-22T03:50:40.798Z,12.16
2019-05-22T03:53:16.925Z,12.20
2019-05-22T03:55:47.570Z,12.21
2019-05-22T03:58:17.923Z,12.17
2019-05-22T04:00:47.602Z,12.20
2019-05-22T04:03:17.673Z,12.26
2019-05-22T04:05:48.671Z,12.23
2019-05-22T04:08:19.490Z,12.14
2019-05-22T04:10:59.013Z,12.13
2019-05-22T04:13:28.946Z,12.10
2019-05-22T04:15:58.582Z,12.08
2019-05-22T04:18:28.041Z,12.07
2019-05-22T04:20:58.916Z,12.08
2019-05-22T04:23:28.265Z,12.14
2019-05-22T04:25:58.965Z,12.12
2019-05-22T04:28:30.003Z,12.15
2019-05-22T04:31:00.179Z,12.12
2019-05-22T04:33:31.505Z,12.17
2019-05-22T04:36:02.917Z,12.12
2019-05-22T04:38:32.688Z,12.15
2019-05-22T04:41:03.023Z,12.15
2019-05-22T04:43:34.803Z,12.18
2019-05-22T04:46:08.345Z,12.24
2019-05-22T04:48:38.207Z,12.26
2019-05-22T04:51:29.991Z,12.28
2019-05-22T04:54:00.434Z,12.32
2019-05-22T04:56:30.161Z,12.39
2019-05-22T04:59:01.810Z,12.38
2019-05-22T05:01:31.179Z,12.26
2019-05-22T05:04:01.354Z,12.26
2019-05-22T05:06:33.184Z,12.28
2019-05-22T05:09:03.888Z,12.36
2019-05-22T05:11:34.002Z,12.36
2019-05-22T05:14:03.179Z,12.40
2019-05-22T05:16:32.437Z,12.37
2019-05-22T05:19:02.335Z,12.34
2019-05-22T05:21:31.763Z,12.39
2019-05-22T05:24:00.962Z,12.36
2019-05-22T05:26:32.065Z,12.43
2019-05-22T05:29:01.891Z,12.48
2019-05-22T05:31:31.078Z,12.47
2019-05-22T05:34:26.072Z,12.52
2019-05-22T05:36:55.903Z,12.44
2019-05-22T05:40:12.119Z,12.43
2019-05-22T05:42:41.323Z,12.39
2019-05-22T05:45:13.588Z,12.41
2019-05-22T05:47:43.422Z,12.36
2019-05-22T05:50:14.079Z,12.23
2019-05-22T05:52:44.129Z,12.19
2019-05-22T05:55:13.629Z,12.25
2019-05-22T05:58:24.723Z,12.33
2019-05-22T06:01:00.070Z,12.29
2019-05-22T06:03:41.617Z,12.25
2019-05-22T06:07:02.227Z,12.33
2019-05-22T06:09:33.488Z,12.23
2019-05-22T06:12:05.814Z,12.19
2019-05-22T06:14:36.669Z,12.22
2019-05-22T06:17:47.443Z,12.26
2019-05-22T06:20:20.348Z,12.32
2019-05-22T06:23:42.164Z,12.22
2019-05-22T06:26:15.131Z,12.22
2019-05-22T06:28:44.826Z,12.18
2019-05-22T06:31:22.182Z,12.22
2019-05-22T06:33:52.454Z,12.24
2019-05-22T06:36:22.435Z,12.25
2019-05-22T06:39:08.543Z,12.22
2019-05-22T06:41:39.200Z,12.35
2019-05-22T06:44:37.605Z,12.44
2019-05-22T06:47:09.633Z,12.45
2019-05-22T06:49:51.601Z,12.58
2019-05-22T06:52:21.365Z,12.59
2019-05-22T06:54:51.398Z,12.54
2019-05-22T06:57:28.525Z,12.51
2019-05-22T07:00:12.977Z,12.39
2019-05-22T07:02:35.561Z,12.36
2019-05-22T07:05:07.051Z,12.42
2019-05-22T07:07:36.533Z,12.31
2019-05-22T07:10:10.315Z,12.38
2019-05-22T07:12:40.083Z,12.52
2019-05-22T07:15:31.290Z,12.60
2019-05-22T07:18:03.015Z,12.60
2019-05-22T07:20:35.983Z,12.44
2019-05-22T07:23:06.861Z,12.36
2019-05-22T07:25:40.115Z,12.23
2019-05-22T07:28:10.138Z,12.37
2019-05-22T07:30:40.632Z,12.43
2019-05-22T07:33:10.509Z,12.38
2019-05-22T07:36:04.467Z,12.50
2019-05-22T07:38:10.748Z,12.45
2019-05-22T07:40:40.396Z,12.33
2019-05-22T07:43:09.591Z,12.33
2019-05-22T07:45:39.249Z,12.27
2019-05-22T07:48:10.154Z,12.29
2019-05-22T07:50:48.107Z,12.19
2019-05-22T07:53:18.856Z,12.28
2019-05-22T07:55:49.429Z,12.39
2019-05-22T07:58:18.924Z,12.51
2019-05-22T08:01:08.206Z,12.46
2019-05-22T08:03:38.163Z,12.29
2019-05-22T08:06:08.282Z,12.39
2019-05-22T08:08:38.424Z,12.41
2019-05-22T08:11:07.714Z,12.53
2019-05-22T08:13:37.771Z,12.74
2019-05-22T08:16:08.528Z,12.64
2019-05-22T08:18:41.559Z,12.61
2019-05-22T08:21:11.855Z,12.56
2019-05-22T08:23:41.213Z,12.43
2019-05-22T08:26:11.589Z,12.26
2019-05-22T08:28:41.555Z,12.22
2019-05-22T08:31:13.099Z,12.23
2019-05-22T08:33:42.891Z,12.39
2019-05-22T08:36:12.195Z,12.36
2019-05-22T08:38:43.884Z,12.29
2019-05-22T08:41:16.003Z,12.30
2019-05-22T08:44:14.597Z,12.23
2019-05-22T08:46:18.141Z,12.31
2019-05-22T08:48:49.410Z,12.49
2019-05-22T08:51:19.190Z,12.55
2019-05-22T08:53:48.992Z,12.40
2019-05-22T08:56:19.999Z,12.63
2019-05-22T08:58:49.855Z,12.74
2019-05-22T09:01:19.073Z,13.03
2019-05-22T09:03:49.440Z,12.99
2019-05-22T09:06:18.985Z,12.95
2019-05-22T09:08:48.318Z,12.79
2019-05-22T09:11:17.726Z,12.77
2019-05-22T09:13:46.925Z,12.82
2019-05-22T09:16:16.617Z,12.81
2019-05-22T09:18:46.354Z,13.02
2019-05-22T09:21:16.489Z,13.05
2019-05-22T09:23:47.259Z,12.81
2019-05-22T09:26:17.119Z,12.87
2019-05-22T09:28:47.115Z,12.85
2019-05-22T09:31:16.297Z,12.96
2019-05-22T09:33:45.628Z,13.18
2019-05-22T09:36:14.884Z,12.87
2019-05-22T09:38:44.184Z,13.09
2019-05-22T09:41:13.502Z,12.93
2019-05-22T09:43:42.868Z,12.86
2019-05-22T09:46:12.126Z,12.82
2019-05-22T09:48:41.987Z,12.94
2019-05-22T09:51:11.468Z,12.79
2019-05-22T09:53:40.961Z,12.88
2019-05-22T09:56:10.575Z,12.96
2019-05-22T09:59:48.339Z,12.88
2019-05-22T10:02:17.572Z,12.76
2019-05-22T10:04:47.025Z,12.94
2019-05-22T10:07:16.461Z,13.10
2019-05-22T10:09:45.972Z,13.28
2019-05-22T10:12:15.676Z,13.41
2019-05-22T10:14:45.389Z,13.38
2019-05-22T10:17:15.573Z,13.39
2019-05-22T10:19:45.336Z,13.56
2019-05-22T10:22:15.761Z,13.91
2019-05-22T10:24:49.887Z,14.09
2019-05-22T10:27:17.224Z,14.54
2019-05-22T10:29:46.488Z,14.79
2019-05-22T10:32:16.059Z,14.82
2019-05-22T10:34:45.377Z,14.51
2019-05-22T10:37:14.854Z,14.54
2019-05-22T10:39:44.244Z,14.55
2019-05-22T10:42:13.401Z,14.20
2019-05-22T10:44:42.866Z,14.27
2019-05-22T10:47:12.009Z,14.60
2019-05-22T10:49:41.900Z,14.54
2019-05-22T10:52:11.244Z,14.48
2019-05-22T10:54:40.684Z,14.43
2019-05-22T10:57:10.532Z,14.17
2019-05-22T10:59:40.165Z,14.18
2019-05-22T11:02:09.622Z,13.92
2019-05-22T11:04:38.868Z,13.90
2019-05-22T11:07:09.635Z,13.91
2019-05-22T11:09:40.300Z,13.81
2019-05-22T11:12:09.697Z,13.89
2019-05-22T11:14:39.308Z,14.01
2019-05-22T11:17:10.010Z,13.77
2019-05-22T11:19:39.329Z,14.10
2019-05-22T11:22:09.602Z,14.29
2019-05-22T11:24:39.240Z,14.34
2019-05-22T11:27:08.528Z,14.42
2019-05-22T11:29:37.846Z,14.98
2019-05-22T11:32:07.502Z,15.46
2019-05-22T11:34:36.821Z,15.78
2019-05-22T11:37:06.018Z,15.83
2019-05-22T11:39:39.849Z,15.29
2019-05-22T11:42:10.317Z,15.25
2019-05-22T11:44:40.931Z,14.96
2019-05-22T11:47:12.090Z,14.76
2019-05-22T11:49:41.355Z,14.77
2019-05-22T11:52:12.141Z,14.75
2019-05-22T11:54:41.749Z,15.17
2019-05-22T11:57:11.770Z,15.18
2019-05-22T11:59:40.959Z,15.27
2019-05-22T12:02:11.833Z,15.72
2019-05-22T12:04:47.914Z,15.86
2019-05-22T12:07:12.560Z,16.52
2019-05-22T12:09:41.899Z,16.77
2019-05-22T12:12:11.562Z,17.14
2019-05-22T12:14:40.885Z,17.11
2019-05-22T12:17:11.538Z,17.41
2019-05-22T12:19:41.030Z,17.85
2019-05-22T12:22:10.470Z,18.39
2019-05-22T12:24:39.628Z,19.51
2019-05-22T12:27:10.389Z,19.43
2019-05-22T12:29:39.934Z,19.51
2019-05-22T12:32:10.397Z,20.00
2019-05-22T12:34:39.565Z,19.48
2019-05-22T12:37:09.198Z,18.66
2019-05-22T12:39:39.739Z,18.12
2019-05-22T12:42:11.246Z,19.07
2019-05-22T12:44:40.404Z,18.29
2019-05-22T12:47:10.015Z,18.67
2019-05-22T12:49:39.334Z,19.38
2019-05-22T12:52:09.123Z,20.51
2019-05-22T12:54:46.923Z,20.77
2019-05-22T12:57:10.407Z,20.86
2019-05-22T12:59:39.742Z,19.99
2019-05-22T13:02:11.026Z,19.41
2019-05-22T13:04:40.858Z,19.54
2019-05-22T13:07:10.493Z,20.96
2019-05-22T13:09:39.901Z,19.47
2019-05-22T13:12:12.893Z,20.27
2019-05-22T13:14:42.132Z,21.50
2019-05-22T13:17:12.612Z,21.36
2019-05-22T13:19:42.687Z,19.94
2019-05-22T13:22:15.137Z,18.85
2019-05-22T13:24:45.015Z,18.89
2019-05-22T13:27:17.768Z,18.99
2019-05-22T13:29:48.278Z,18.50
2019-05-22T13:32:19.944Z,19.09
2019-05-22T13:34:49.202Z,19.61
2019-05-22T13:37:18.585Z,18.91
2019-05-22T13:39:47.764Z,19.23
2019-05-22T13:42:17.236Z,20.19
2019-05-22T13:44:47.192Z,20.26
2019-05-22T13:47:17.237Z,19.53
2019-05-22T13:49:46.439Z,20.42
2019-05-22T13:52:16.141Z,20.90
2019-05-22T13:54:45.919Z,20.50
2019-05-22T13:57:15.575Z,21.24
2019-05-22T13:59:45.067Z,21.70
2019-05-22T14:02:14.797Z,20.50
2019-05-22T14:04:44.493Z,19.53
2019-05-22T14:07:14.358Z,19.30
2019-05-22T14:09:44.055Z,19.68
2019-05-22T14:12:13.716Z,20.02
2019-05-22T14:14:43.922Z,20.28
2019-05-22T14:17:13.183Z,21.38
2019-05-22T14:19:42.660Z,20.02
2019-05-22T14:22:11.974Z,20.50
2019-05-22T14:24:41.148Z,19.15
2019-05-22T14:27:10.376Z,20.31
2019-05-22T14:29:40.110Z,20.74
2019-05-22T14:32:11.377Z,20.12
2019-05-22T14:34:40.961Z,20.26
2019-05-22T14:37:15.452Z,20.16
2019-05-22T14:39:47.331Z,19.77
2019-05-22T14:42:17.069Z,19.81
2019-05-22T14:44:46.638Z,20.59
2019-05-22T14:47:16.733Z,19.95
2019-05-22T14:49:46.143Z,20.32
2019-05-22T14:52:15.837Z,19.76
2019-05-22T14:54:44.983Z,19.60
2019-05-22T14:57:15.088Z,19.32
2019-05-22T14:59:44.288Z,19.26
2019-05-22T15:02:14.132Z,19.24
2019-05-22T15:04:43.499Z,19.56
2019-05-22T15:07:13.558Z,19.94
2019-05-22T15:09:42.896Z,20.01
2019-05-22T15:12:12.406Z,19.95
2019-05-22T15:14:41.709Z,19.86
2019-05-22T15:17:11.585Z,19.67
2019-05-22T15:19:40.784Z,19.42
2019-05-22T15:22:10.922Z,19.81
2019-05-22T15:24:40.309Z,19.22
2019-05-22T15:27:10.509Z,18.83
2019-05-22T15:29:39.784Z,18.99
2019-05-22T15:32:10.577Z,18.63
2019-05-22T15:34:39.799Z,18.52
2019-05-22T15:37:11.148Z,19.39
2019-05-22T15:39:40.820Z,19.92
2019-05-22T15:42:13.490Z,19.40
2019-05-22T15:44:42.954Z,19.80
2019-05-22T15:47:12.150Z,19.33
2019-05-22T15:49:44.824Z,19.29
2019-05-22T15:52:16.742Z,18.95
2019-05-22T15:54:46.325Z,18.66
2019-05-22T15:57:17.802Z,18.96
2019-05-22T15:59:47.623Z,19.95
2019-05-22T16:02:21.284Z,20.08
2019-05-22T16:04:50.773Z,20.72
2019-05-22T16:07:20.087Z,21.28
2019-05-22T16:09:50.086Z,20.15
2019-05-22T16:12:19.653Z,19.57
2019-05-22T16:14:49.868Z,19.20
2019-05-22T16:17:20.818Z,19.10
2019-05-22T16:19:50.357Z,19.38
2019-05-22T16:22:19.677Z,19.35
2019-05-22T16:24:49.210Z,18.68
2019-05-22T16:27:19.783Z,19.17
2019-05-22T16:29:49.382Z,19.67
2019-05-22T16:32:19.142Z,20.50
2019-05-22T16:34:48.823Z,21.48
2019-05-22T16:37:18.605Z,21.95
2019-05-22T16:39:50.503Z,22.24
2019-05-22T16:42:19.344Z,22.30
2019-05-22T16:44:49.224Z,21.89
2019-05-22T16:47:21.673Z,21.27
2019-05-22T16:49:53.583Z,20.76
2019-05-22T16:52:25.774Z,19.96
2019-05-22T16:54:55.170Z,20.10
2019-05-22T16:57:25.490Z,20.66
2019-05-22T16:59:55.163Z,20.43
2019-05-22T17:02:25.868Z,21.56
2019-05-22T17:04:56.151Z,20.76
2019-05-22T17:07:28.136Z,20.22
2019-05-22T17:09:57.231Z,19.95
2019-05-22T17:12:27.300Z,20.46
2019-05-22T17:14:56.918Z,20.31
2019-05-22T17:17:26.247Z,20.36
2019-05-22T17:19:55.720Z,20.58
2019-05-22T17:22:26.133Z,20.53
2019-05-22T17:24:55.631Z,20.08
2019-05-22T17:27:25.139Z,20.09
2019-05-22T17:29:55.384Z,20.24
2019-05-22T17:32:26.557Z,20.20
2019-05-22T17:34:56.467Z,20.14
2019-05-22T17:37:26.581Z,20.64
2019-05-22T17:39:56.027Z,21.12
2019-05-22T17:42:27.154Z,21.04
2019-05-22T17:44:57.677Z,21.74
2019-05-22T17:47:27.801Z,21.46
2019-05-22T17:49:59.307Z,20.39
2019-05-22T17:52:29.357Z,19.59
2019-05-22T17:54:59.428Z,19.17
2019-05-22T17:57:29.573Z,18.79
2019-05-22T17:59:59.251Z,18.63
2019-05-22T18:02:37.623Z,18.43
2019-05-22T18:05:07.843Z,18.41
2019-05-22T18:07:38.659Z,18.22
2019-05-22T18:10:09.312Z,17.97
2019-05-22T18:12:39.182Z,17.90
2019-05-22T18:15:09.778Z,17.68
2019-05-22T18:17:40.605Z,17.37
2019-05-22T18:20:12.548Z,17.21
2019-05-22T18:22:42.512Z,17.13
2019-05-22T18:25:13.047Z,16.98
2019-05-22T18:27:42.542Z,16.84
2019-05-22T18:30:12.657Z,16.65
2019-05-22T18:32:42.816Z,16.51
2019-05-22T18:35:14.611Z,16.46
2019-05-22T18:37:44.056Z,16.28
2019-05-22T18:40:15.158Z,16.14
2019-05-22T18:42:44.813Z,16.03
2019-05-22T18:45:14.412Z,15.99
2019-05-22T18:47:44.159Z,15.95
2019-05-22T18:50:14.646Z,15.88
2019-05-22T18:52:47.405Z,15.74
2019-05-22T18:55:17.273Z,15.58
2019-05-22T18:57:46.979Z,15.55
2019-05-22T19:00:19.554Z,15.44
2019-05-22T19:02:48.827Z,15.24
2019-05-22T19:05:21.540Z,15.10
2019-05-22T19:07:51.506Z,14.76
2019-05-22T19:10:21.255Z,14.67
2019-05-22T19:12:50.539Z,14.53
2019-05-22T19:15:20.704Z,14.45
2019-05-22T19:17:50.207Z,14.37
2019-05-22T19:20:19.607Z,14.29
2019-05-22T19:22:59.493Z,14.11
2019-05-22T19:25:20.556Z,13.88
2019-05-22T19:27:50.084Z,13.73
2019-05-22T19:30:20.638Z,13.67
2019-05-22T19:32:51.168Z,13.59
2019-05-22T19:35:20.731Z,13.48
2019-05-22T19:37:50.186Z,13.39
2019-05-22T19:40:19.964Z,13.31
2019-05-22T19:42:49.748Z,13.22
2019-05-22T19:45:20.772Z,13.02
2019-05-22T19:47:51.940Z,12.79
2019-05-22T19:50:23.875Z,12.70
2019-05-22T19:52:57.626Z,12.65
2019-05-22T19:55:30.004Z,12.61
2019-05-22T19:57:59.832Z,12.53
2019-05-22T20:00:30.419Z,12.46
2019-05-22T20:02:59.941Z,12.36
2019-05-22T20:05:29.780Z,12.28
2019-05-22T20:07:59.212Z,12.16
2019-05-22T20:10:28.412Z,12.05
2019-05-22T20:12:57.724Z,12.05
2019-05-22T20:15:27.936Z,11.74
2019-05-22T20:17:57.360Z,11.74
2019-05-22T20:20:27.224Z,11.56
2019-05-22T20:22:58.175Z,11.56
2019-05-22T20:25:28.194Z,11.64
2019-05-22T20:27:59.584Z,11.62
2019-05-22T20:30:29.656Z,11.50
2019-05-22T20:32:58.889Z,11.29
2019-05-22T20:35:29.599Z,11.27
2019-05-22T20:38:00.537Z,11.33
2019-05-22T20:40:30.197Z,11.20
2019-05-22T20:42:59.954Z,11.19
2019-05-22T20:45:29.507Z,11.13
2019-05-22T20:48:14.495Z,11.05
2019-05-22T20:50:44.093Z,10.82
2019-05-22T20:53:16.151Z,10.66
2019-05-22T20:55:46.536Z,10.55
2019-05-22T20:58:17.668Z,10.48
2019-05-22T21:00:49.251Z,10.39
2019-05-22T21:03:18.812Z,10.46
2019-05-22T21:05:49.134Z,10.52
2019-05-22T21:08:20.147Z,10.42
2019-05-22T21:10:50.101Z,10.43
2019-05-22T21:13:20.197Z,10.46
2019-05-22T21:15:52.225Z,10.44
2019-05-22T21:18:25.798Z,10.38
2019-05-22T21:20:56.122Z,10.21
2019-05-22T21:23:25.635Z,10.23
2019-05-22T21:25:55.268Z,10.21
2019-05-22T21:28:24.538Z,10.07
2019-05-22T21:30:55.469Z,9.93
2019-05-22T21:33:25.291Z,9.80
2019-05-22T21:35:54.862Z,9.71
2019-05-22T21:38:24.675Z,9.63
2019-05-22T21:40:56.360Z,9.71
2019-05-22T21:43:25.774Z,9.72
2019-05-22T21:45:54.937Z,9.81
2019-05-22T21:48:24.868Z,9.74
2019-05-22T21:50:54.153Z,9.65
2019-05-22T21:53:23.295Z,9.55
2019-05-22T21:56:04.025Z,9.49
2019-05-22T21:58:24.497Z,9.53
2019-05-22T22:01:28.072Z,9.57
2019-05-22T22:04:18.058Z,9.57
2019-05-22T22:06:47.837Z,9.47
2019-05-22T22:09:18.417Z,9.33
2019-05-22T22:11:48.410Z,9.25
2019-05-22T22:14:18.041Z,9.18
2019-05-22T22:16:47.661Z,9.07
2019-05-22T22:19:18.377Z,9.04
2019-05-22T22:21:47.932Z,9.16
2019-05-22T22:24:17.437Z,9.25
2019-05-22T22:26:46.836Z,9.26
2019-05-22T22:29:16.275Z,9.25
2019-05-22T22:31:46.886Z,9.22
2019-05-22T22:34:27.590Z,9.14
2019-05-22T22:36:57.433Z,9.05
2019-05-22T22:39:27.658Z,8.87
2019-05-22T22:41:59.407Z,8.92
2019-05-22T22:44:29.684Z,8.99
2019-05-22T22:47:05.630Z,9.01
2019-05-22T22:49:35.506Z,9.01
2019-05-22T22:52:08.520Z,9.00
2019-05-22T22:54:38.567Z,8.94
2019-05-22T22:57:09.453Z,8.85
2019-05-22T22:59:38.620Z,8.71
2019-05-22T23:02:12.053Z,8.74
2019-05-22T23:04:42.434Z,8.70
2019-05-22T23:07:13.305Z,8.68
2019-05-22T23:09:44.104Z,8.76
2019-05-22T23:12:13.952Z,8.66
2019-05-22T23:14:50.644Z,8.54
2019-05-22T23:17:20.366Z,8.47
2019-05-22T23:19:47.832Z,8.41
2019-05-22T23:22:27.256Z,8.40
2019-05-22T23:24:57.320Z,8.46
2019-05-22T23:27:29.123Z,8.50
2019-05-22T23:29:59.778Z,8.43
2019-05-22T23:32:29.402Z,8.43
2019-05-22T23:35:00.740Z,8.46
2019-05-22T23:37:32.308Z,8.47
2019-05-22T23:40:02.690Z,8.45
2019-05-22T23:42:39.564Z,8.39
2019-05-22T23:45:12.866Z,8.24
2019-05-22T23:47:58.903Z,8.10
2019-05-22T23:50:28.423Z,7.98
2019-05-22T23:52:58.387Z,8.01
2019-05-22T23:55:27.578Z,8.09
2019-05-22T23:57:56.730Z,8.18
